Time;durP1;ratioP1;P1;durP2;ratioP2;P2;SDS_P1;SDS_P2;PMS_P1;PMS_P2;Temp;Humidity;BMP_temperature;BMP_pressure;BME280_temperature;BME280_humidity;BME280_pressure;Samples;Min_cycle;Max_cycle;Signal;HPM_P1;HPM_P2
2022/01/27 00:06:47;;;;;;;48.47;22.00;;;3.30;99.90;;;;;;7173665;32;20247;-62
2022/01/27 00:10:53;;;;;;;45.80;19.90;;;3.30;99.90;;;;;;7177878;32;20134;-61
2022/01/27 00:15:08;;;;;;;49.00;22.73;;;3.30;99.90;;;;;;7169930;32;20178;-62
2022/01/27 00:19:11;;;;;;;46.50;22.17;;;3.30;99.90;;;;;;7175059;32;20117;-60
2022/01/27 00:23:12;;;;;;;45.92;20.73;;;3.30;99.90;;;;;;7156120;32;20141;-61
2022/01/27 00:27:14;;;;;;;46.55;20.80;;;3.30;99.90;;;;;;7172755;32;20101;-61
2022/01/27 00:31:17;;;;;;;41.75;21.02;;;3.20;99.90;;;;;;7175717;32;20461;-61
2022/01/27 00:35:19;;;;;;;45.05;23.02;;;3.20;99.90;;;;;;7148073;32;20310;-61
2022/01/27 00:39:21;;;;;;;41.20;21.67;;;3.20;99.90;;;;;;7152385;32;20097;-62
2022/01/27 00:43:23;;;;;;;45.55;22.50;;;3.30;99.90;;;;;;7163236;32;20134;-61
2022/01/27 00:47:25;;;;;;;43.55;21.77;;;3.20;99.90;;;;;;7174927;33;20177;-62
2022/01/27 00:51:30;;;;;;;44.78;21.27;;;3.20;99.90;;;;;;7170621;32;20251;-60
2022/01/27 00:55:38;;;;;;;41.83;21.37;;;3.20;99.90;;;;;;7176267;32;20618;-62
2022/01/27 01:03:50;;;;;;;44.95;21.42;;;3.20;99.90;;;;;;7159269;33;20113;-62
2022/01/27 01:07:56;;;;;;;50.55;23.08;;;3.20;99.90;;;;;;7160799;33;20135;-60
2022/01/27 01:13:12;;;;;;;47.65;23.02;;;3.10;99.90;;;;;;7171312;33;20105;-60
2022/01/27 01:33:33;;;;;;;44.80;20.62;;;2.90;99.90;;;;;;7170141;33;20101;-61
2022/01/27 01:37:39;;;;;;;38.38;19.33;;;2.90;99.90;;;;;;7172480;33;20109;-63
2022/01/27 01:41:42;;;;;;;45.47;21.33;;;2.90;99.90;;;;;;7175336;33;20196;-61
2022/01/27 01:45:45;;;;;;;44.05;20.17;;;3.00;99.90;;;;;;7158433;33;20121;-61
2022/01/27 01:49:47;;;;;;;47.25;20.08;;;3.00;99.90;;;;;;7162518;33;20397;-61
2022/01/27 01:53:49;;;;;;;44.10;18.98;;;2.90;99.90;;;;;;7160149;33;20117;-61
2022/01/27 01:57:51;;;;;;;37.58;17.98;;;3.00;99.90;;;;;;7162948;32;20200;-60
2022/01/27 02:01:52;;;;;;;32.85;14.00;;;3.00;99.90;;;;;;7166929;32;20529;-62
2022/01/27 02:05:56;;;;;;;42.75;19.33;;;2.90;99.90;;;;;;7181329;32;20175;-60
2022/01/27 02:10:27;;;;;;;43.33;19.40;;;2.90;99.90;;;;;;7173824;32;20132;-61
2022/01/27 02:18:49;;;;;;;45.53;18.30;;;3.00;99.90;;;;;;7176022;32;20430;-61
2022/01/27 02:22:51;;;;;;;41.13;18.70;;;3.00;99.90;;;;;;7176912;33;20113;-61
2022/01/27 02:26:53;;;;;;;37.70;17.45;;;3.00;99.90;;;;;;7160352;32;20526;-61
2022/01/27 02:30:55;;;;;;;42.83;19.73;;;3.00;99.90;;;;;;7162428;32;20137;-61
2022/01/27 02:34:57;;;;;;;43.65;18.95;;;3.00;99.90;;;;;;7145943;32;20112;-61
2022/01/27 02:38:59;;;;;;;42.85;19.42;;;3.00;99.90;;;;;;7158670;32;20135;-61
2022/01/27 02:43:05;;;;;;;43.42;18.65;;;3.10;99.90;;;;;;7167142;32;20220;-62
2022/01/27 02:47:07;;;;;;;37.25;17.37;;;3.10;99.90;;;;;;7161779;32;20758;-61
2022/01/27 02:51:09;;;;;;;42.40;18.90;;;3.10;99.90;;;;;;7158987;32;20339;-61
2022/01/27 02:55:11;;;;;;;42.10;19.85;;;3.10;99.90;;;;;;7163041;32;20204;-62
2022/01/27 02:59:15;;;;;;;42.67;17.98;;;3.10;99.90;;;;;;7179910;32;20230;-61
2022/01/27 03:03:16;;;;;;;38.08;18.65;;;3.20;99.90;;;;;;7177214;32;20130;-62
2022/01/27 03:07:19;;;;;;;42.15;18.70;;;3.10;99.90;;;;;;7164270;32;20117;-60
2022/01/27 03:11:35;;;;;;;43.05;19.00;;;3.20;99.90;;;;;;7166824;32;20561;-60
2022/01/27 03:15:37;;;;;;;36.80;18.05;;;3.20;99.90;;;;;;7161053;32;20179;-62
2022/01/27 03:19:39;;;;;;;39.90;17.23;;;3.20;99.90;;;;;;7178436;32;20131;-61
2022/01/27 03:23:41;;;;;;;42.42;18.10;;;3.20;99.90;;;;;;7155842;32;20552;-61
2022/01/27 03:27:46;;;;;;;42.83;19.62;;;3.20;99.90;;;;;;7162835;32;20641;-61
2022/01/27 03:31:49;;;;;;;41.00;18.02;;;3.20;99.90;;;;;;7173088;32;20458;-61
2022/01/27 03:35:50;;;;;;;41.90;18.23;;;3.20;99.90;;;;;;7163838;32;20618;-61
2022/01/27 03:39:52;;;;;;;40.22;18.62;;;3.20;99.90;;;;;;7161507;32;20193;-60
2022/01/27 03:43:54;;;;;;;39.35;17.10;;;3.30;99.90;;;;;;7163464;32;20192;-60
2022/01/27 03:47:56;;;;;;;40.05;18.35;;;3.30;99.90;;;;;;7175636;32;20124;-61
2022/01/27 03:52:01;;;;;;;38.83;18.55;;;3.20;99.90;;;;;;7161351;32;21086;-61
2022/01/27 03:56:02;;;;;;;34.72;17.67;;;3.20;99.90;;;;;;7155129;32;20140;-61
2022/01/27 04:00:07;;;;;;;43.40;18.60;;;3.30;99.90;;;;;;7172187;32;20196;-62
2022/01/27 04:04:08;;;;;;;35.55;16.65;;;3.30;99.90;;;;;;7169971;32;20113;-61
2022/01/27 04:08:12;;;;;;;36.15;16.80;;;3.30;99.90;;;;;;7162862;32;20946;-63
2022/01/27 04:12:14;;;;;;;37.28;15.80;;;3.30;99.90;;;;;;7178370;32;20124;-61
2022/01/27 04:16:16;;;;;;;39.05;18.62;;;3.20;99.90;;;;;;7162709;32;20505;-62
2022/01/27 04:20:18;;;;;;;38.90;17.23;;;3.20;99.90;;;;;;7171355;32;20118;-60
2022/01/27 04:24:20;;;;;;;34.72;14.68;;;3.30;99.90;;;;;;7177324;32;20117;-61
2022/01/27 04:28:29;;;;;;;36.00;16.95;;;3.30;99.90;;;;;;7173491;32;20131;-61
2022/01/27 04:32:39;;;;;;;39.53;15.88;;;3.20;99.90;;;;;;7153541;32;20201;-61
2022/01/27 04:36:42;;;;;;;36.20;16.77;;;3.20;99.90;;;;;;7175711;32;20631;-61
2022/01/27 04:44:58;;;;;;;38.53;16.27;;;3.20;99.90;;;;;;7171091;32;20208;-61
2022/01/27 04:49:02;;;;;;;35.55;17.05;;;3.30;99.90;;;;;;7138361;32;20098;-61
2022/01/27 04:53:07;;;;;;;43.85;17.27;;;3.30;99.90;;;;;;7171014;32;20114;-61
2022/01/27 04:57:09;;;;;;;39.28;19.10;;;3.30;99.90;;;;;;7173082;32;20125;-61
2022/01/27 05:01:11;;;;;;;37.42;16.85;;;3.20;99.90;;;;;;7171348;33;20223;-61
2022/01/27 05:05:13;;;;;;;35.75;16.85;;;3.20;99.90;;;;;;7170839;33;20105;-60
2022/01/27 05:09:24;;;;;;;42.50;16.45;;;3.30;99.90;;;;;;7171518;33;20262;-61
2022/01/27 05:13:29;;;;;;;38.42;16.92;;;3.20;99.90;;;;;;7161080;33;20255;-62
2022/01/27 05:17:30;;;;;;;39.38;17.25;;;3.30;99.90;;;;;;7173759;33;20214;-62
2022/01/27 05:21:33;;;;;;;35.33;17.08;;;3.20;99.90;;;;;;7173832;33;20118;-61
2022/01/27 05:25:35;;;;;;;40.33;16.20;;;3.20;99.90;;;;;;7145319;33;20683;-61
2022/01/27 05:29:37;;;;;;;40.10;15.23;;;3.30;99.90;;;;;;7175630;33;22252;-62
2022/01/27 05:33:38;;;;;;;38.28;18.15;;;3.30;99.90;;;;;;7172582;32;20872;-62
2022/01/27 05:37:40;;;;;;;38.75;17.25;;;3.40;99.90;;;;;;7172194;32;20228;-61
2022/01/27 05:41:42;;;;;;;39.13;17.15;;;3.40;99.90;;;;;;7180639;32;20476;-63
2022/01/27 05:45:44;;;;;;;40.05;17.15;;;3.40;99.90;;;;;;7165414;32;20219;-61
2022/01/27 05:49:46;;;;;;;39.63;17.30;;;3.50;99.90;;;;;;7181634;32;20220;-61
2022/01/27 05:53:48;;;;;;;35.53;17.23;;;3.50;99.90;;;;;;7181079;32;20741;-61
2022/01/27 05:57:50;;;;;;;31.27;15.10;;;3.60;99.90;;;;;;7168375;32;20132;-61
2022/01/27 06:01:52;;;;;;;35.72;16.73;;;3.60;99.90;;;;;;7174245;32;20201;-62
2022/01/27 06:05:53;;;;;;;34.28;16.23;;;3.60;99.90;;;;;;7175267;32;20164;-61
2022/01/27 06:09:56;;;;;;;35.92;16.80;;;3.70;99.90;;;;;;7182006;32;20110;-61
2022/01/27 06:13:57;;;;;;;42.85;16.55;;;3.70;99.90;;;;;;7174138;32;20299;-63
2022/01/27 06:17:59;;;;;;;31.10;15.05;;;3.80;99.90;;;;;;7182234;32;20143;-61
2022/01/27 06:22:03;;;;;;;34.25;15.35;;;3.90;99.90;;;;;;7184012;32;20098;-62
2022/01/27 06:26:05;;;;;;;34.25;15.70;;;4.00;99.90;;;;;;7175385;32;20106;-60
2022/01/27 06:30:08;;;;;;;33.75;16.23;;;4.10;99.90;;;;;;7179228;32;20148;-60
2022/01/27 06:34:10;;;;;;;34.28;15.57;;;4.20;99.90;;;;;;7181046;32;20196;-60
2022/01/27 06:38:12;;;;;;;33.83;14.85;;;4.20;99.90;;;;;;7176769;32;20620;-60
2022/01/27 06:42:13;;;;;;;32.80;15.32;;;4.40;99.90;;;;;;7182126;32;20106;-59
2022/01/27 06:46:15;;;;;;;30.50;14.10;;;4.40;99.90;;;;;;7175049;32;20298;-60
2022/01/27 06:50:17;;;;;;;29.45;14.35;;;4.50;99.90;;;;;;7177127;32;20114;-60
2022/01/27 06:54:19;;;;;;;31.95;14.18;;;4.60;99.90;;;;;;7180831;32;20208;-59
2022/01/27 06:58:21;;;;;;;30.37;14.40;;;4.60;99.90;;;;;;7180412;32;20720;-61
2022/01/27 07:02:22;;;;;;;30.20;14.80;;;4.70;99.90;;;;;;7183552;32;20186;-61
2022/01/27 07:06:24;;;;;;;29.25;12.35;;;4.80;99.90;;;;;;7176967;33;20121;-60
2022/01/27 07:10:27;;;;;;;29.58;14.27;;;4.80;99.90;;;;;;7180913;33;20131;-60
2022/01/27 07:14:31;;;;;;;24.52;13.23;;;4.90;99.90;;;;;;7181469;32;20136;-60
2022/01/27 07:18:33;;;;;;;29.00;13.82;;;4.90;99.90;;;;;;7182368;33;20196;-59
2022/01/27 07:22:35;;;;;;;27.35;12.98;;;4.90;99.90;;;;;;7173496;33;21754;-60
2022/01/27 07:26:37;;;;;;;31.48;13.95;;;5.00;99.90;;;;;;7174494;33;20758;-60
2022/01/27 07:30:39;;;;;;;31.55;14.02;;;5.00;99.90;;;;;;7165321;33;20402;-60
2022/01/27 07:34:41;;;;;;;28.23;13.62;;;5.10;99.90;;;;;;7163250;33;20185;-60
2022/01/27 07:38:44;;;;;;;33.25;14.45;;;5.20;99.90;;;;;;7169703;33;20137;-61
2022/01/27 07:42:47;;;;;;;29.17;14.60;;;5.20;99.90;;;;;;7170967;33;20177;-60
2022/01/27 07:46:48;;;;;;;32.05;14.57;;;5.20;99.90;;;;;;7161540;33;20173;-60
2022/01/27 07:50:50;;;;;;;30.10;14.82;;;5.20;99.90;;;;;;7164405;33;20113;-59
2022/01/27 07:54:52;;;;;;;32.22;15.02;;;5.20;99.90;;;;;;7174044;33;20184;-60
2022/01/27 07:58:53;;;;;;;30.45;15.63;;;5.20;99.90;;;;;;7171593;33;20522;-60
2022/01/27 08:02:55;;;;;;;35.95;17.23;;;5.30;99.90;;;;;;7170814;32;20113;-59
2022/01/27 08:06:57;;;;;;;32.10;16.15;;;5.30;99.90;;;;;;7170790;32;20105;-60
2022/01/27 08:10:59;;;;;;;41.72;17.35;;;5.30;99.90;;;;;;7176217;32;20110;-60
2022/01/27 08:15:01;;;;;;;31.25;14.75;;;5.30;99.90;;;;;;7173581;32;20223;-59
2022/01/27 08:19:02;;;;;;;35.20;16.67;;;5.40;99.90;;;;;;7175051;33;20374;-59
2022/01/27 08:23:06;;;;;;;27.13;13.40;;;5.30;99.90;;;;;;7178188;33;20109;-59
2022/01/27 08:27:12;;;;;;;37.00;16.50;;;5.30;99.90;;;;;;7174590;32;20204;-59
2022/01/27 08:31:33;;;;;;;39.28;18.37;;;5.20;99.90;;;;;;7175184;32;20105;-59
2022/01/27 08:35:35;;;;;;;35.00;18.05;;;5.10;99.90;;;;;;7174222;32;20167;-60
2022/01/27 08:39:38;;;;;;;39.67;19.17;;;5.10;99.90;;;;;;7171549;33;20105;-62
2022/01/27 08:43:40;;;;;;;38.22;18.60;;;5.00;99.90;;;;;;7172102;32;20598;-62
2022/01/27 08:47:44;;;;;;;42.85;18.95;;;5.00;99.90;;;;;;7177338;33;20205;-62
2022/01/27 08:51:46;;;;;;;38.22;18.73;;;5.00;99.90;;;;;;7178201;32;20114;-61
2022/01/27 08:55:48;;;;;;;37.70;18.98;;;5.00;99.90;;;;;;7176587;32;20139;-61
2022/01/27 08:59:51;;;;;;;46.25;20.75;;;5.00;99.90;;;;;;7172004;32;20607;-62
2022/01/27 09:03:53;;;;;;;43.63;20.05;;;4.90;99.90;;;;;;7177348;32;20153;-60
2022/01/27 09:07:57;;;;;;;43.17;20.80;;;5.00;99.90;;;;;;7175695;32;20138;-60
2022/01/27 09:12:00;;;;;;;43.15;19.45;;;5.00;99.90;;;;;;7186900;32;20450;-61
2022/01/27 09:16:01;;;;;;;42.90;21.65;;;5.00;99.90;;;;;;7183701;32;20177;-60
2022/01/27 09:20:04;;;;;;;43.38;20.05;;;5.00;99.90;;;;;;7183868;33;20335;-60
2022/01/27 09:24:06;;;;;;;47.05;21.60;;;5.10;99.90;;;;;;7179921;32;20118;-62
2022/01/27 09:28:08;;;;;;;42.28;20.52;;;5.10;99.90;;;;;;7186130;33;20104;-60
2022/01/27 09:32:10;;;;;;;42.35;19.80;;;5.10;99.90;;;;;;7183261;32;20117;-61
2022/01/27 09:36:12;;;;;;;45.53;21.23;;;5.10;99.90;;;;;;7184226;32;20125;-61
2022/01/27 09:40:15;;;;;;;46.83;21.00;;;5.10;99.90;;;;;;7179728;32;20117;-61
2022/01/27 09:44:19;;;;;;;43.90;21.33;;;5.10;99.90;;;;;;7184077;32;20131;-60
2022/01/27 09:48:23;;;;;;;44.65;20.10;;;5.10;99.90;;;;;;7183138;32;20231;-60
2022/01/27 09:52:24;;;;;;;38.35;18.83;;;5.20;99.90;;;;;;7182626;32;20127;-60
2022/01/27 09:56:27;;;;;;;37.97;18.37;;;5.20;99.90;;;;;;7167992;32;20597;-61
2022/01/27 10:00:38;;;;;;;40.50;18.45;;;5.20;99.90;;;;;;7180163;32;20168;-60
2022/01/27 10:04:42;;;;;;;37.05;18.85;;;5.20;99.90;;;;;;7184545;32;20155;-61
2022/01/27 10:08:44;;;;;;;38.50;17.80;;;5.20;99.90;;;;;;7185431;32;20568;-61
2022/01/27 10:12:51;;;;;;;38.45;18.87;;;5.20;99.90;;;;;;7185277;32;20564;-61
2022/01/27 10:16:58;;;;;;;;;;;5.30;99.90;;;;;;7184474;32;20307;-61
2022/01/27 10:21:06;;;;;;;39.70;17.27;;;5.30;99.90;;;;;;7176932;32;20675;-62
2022/01/27 10:25:10;;;;;;;33.75;16.10;;;5.30;99.90;;;;;;7177012;32;20167;-62
2022/01/27 10:29:28;;;;;;;33.00;17.30;;;5.40;99.90;;;;;;7171923;32;20138;-61
2022/01/27 10:33:52;;;;;;;33.03;17.58;;;5.40;99.90;;;;;;7179672;32;20176;-62
2022/01/27 10:37:55;;;;;;;38.17;17.55;;;5.40;99.90;;;;;;7175825;32;20223;-60
2022/01/27 10:42:00;;;;;;;35.60;17.23;;;5.50;99.90;;;;;;7176512;32;20126;-59
2022/01/27 10:46:12;;;;;;;30.27;15.52;;;5.50;99.90;;;;;;7175225;32;20184;-60
2022/01/27 10:50:16;;;;;;;28.30;15.32;;;5.40;99.90;;;;;;7176813;32;20221;-60
2022/01/27 10:54:38;;;;;;;26.85;13.45;;;5.50;99.90;;;;;;7176189;32;20888;-61
2022/01/27 10:58:42;;;;;;;27.23;13.98;;;5.50;99.90;;;;;;7175029;33;20224;-60
2022/01/27 11:02:56;;;;;;;25.35;14.05;;;5.60;99.90;;;;;;7173065;32;20130;-61
2022/01/27 11:07:01;;;;;;;23.70;12.85;;;5.60;99.90;;;;;;7171960;32;20128;-61
2022/01/27 11:11:05;;;;;;;22.00;11.93;;;5.70;99.90;;;;;;7177480;32;20125;-60
2022/01/27 11:15:07;;;;;;;26.77;12.88;;;5.70;99.90;;;;;;7178829;32;20152;-60
2022/01/27 11:19:39;;;;;;;23.60;11.80;;;5.70;99.90;;;;;;7180451;32;20601;-60
2022/01/27 11:27:53;;;;;;;23.73;12.27;;;5.70;99.90;;;;;;7178553;32;20133;-60
2022/01/27 11:32:21;;;;;;;18.12;10.65;;;5.70;99.90;;;;;;7174623;32;20121;-60
2022/01/27 11:36:24;;;;;;;22.05;12.13;;;5.70;99.90;;;;;;7170257;33;20114;-60
2022/01/27 11:40:39;;;;;;;24.98;11.68;;;5.70;99.90;;;;;;7179112;33;20192;-60
2022/01/27 11:44:43;;;;;;;21.85;11.88;;;5.70;99.90;;;;;;7177127;33;20133;-60
2022/01/27 11:48:44;;;;;;;17.73;11.15;;;5.80;99.90;;;;;;7176946;33;20105;-60
2022/01/27 11:52:54;;;;;;;25.88;11.98;;;5.80;99.90;;;;;;7177471;33;20113;-60
2022/01/27 11:56:55;;;;;;;20.30;11.88;;;5.90;99.90;;;;;;7177934;33;20557;-60
2022/01/27 12:01:16;;;;;;;19.62;10.65;;;5.90;99.90;;;;;;7168695;32;20124;-60
2022/01/27 12:05:19;;;;;;;19.75;11.25;;;5.90;99.90;;;;;;7175164;33;20106;-60
2022/01/27 12:09:20;;;;;;;19.90;11.40;;;5.90;99.90;;;;;;7172843;32;20105;-60
2022/01/27 12:13:26;;;;;;;19.35;11.40;;;5.90;99.90;;;;;;7177476;32;20291;-61
2022/01/27 12:17:28;;;;;;;19.70;11.85;;;5.90;99.90;;;;;;7178281;32;20151;-59
2022/01/27 12:21:37;;;;;;;20.92;12.93;;;6.00;99.90;;;;;;7172012;32;20191;-60
2022/01/27 12:25:45;;;;;;;22.50;12.60;;;6.00;99.90;;;;;;7174473;32;20109;-60
2022/01/27 12:29:50;;;;;;;22.15;12.60;;;6.00;99.90;;;;;;7175323;32;20517;-60
2022/01/27 12:33:51;;;;;;;22.30;12.63;;;6.10;99.90;;;;;;7174037;32;20105;-60
2022/01/27 12:37:57;;;;;;;20.45;11.65;;;6.10;99.90;;;;;;7172120;32;20442;-60
2022/01/27 12:42:00;;;;;;;17.73;10.98;;;6.20;99.90;;;;;;7176570;33;20109;-60
2022/01/27 12:46:06;;;;;;;22.02;11.88;;;6.20;99.90;;;;;;7173506;32;20105;-60
2022/01/27 12:50:12;;;;;;;20.80;11.85;;;6.20;99.90;;;;;;7174668;32;20200;-60
2022/01/27 12:54:14;;;;;;;21.37;12.73;;;6.20;99.90;;;;;;7175624;32;20291;-60
2022/01/27 12:58:17;;;;;;;20.92;13.25;;;6.20;99.90;;;;;;7167654;32;20213;-61
2022/01/27 13:02:21;;;;;;;22.58;12.88;;;6.30;99.90;;;;;;7172255;33;20183;-60
2022/01/27 13:06:29;;;;;;;18.73;12.37;;;6.30;99.90;;;;;;7172477;33;20160;-60
2022/01/27 13:10:31;;;;;;;19.77;12.43;;;6.40;99.90;;;;;;7170360;33;20180;-60
2022/01/27 13:14:32;;;;;;;21.05;13.25;;;6.30;99.90;;;;;;7175615;33;20117;-61
2022/01/27 13:18:49;;;;;;;19.62;11.40;;;6.30;99.90;;;;;;7171012;33;20191;-59
2022/01/27 13:22:59;;;;;;;20.25;11.95;;;6.40;99.90;;;;;;7175745;33;20114;-59
2022/01/27 13:27:09;;;;;;;22.60;11.85;;;6.60;99.90;;;;;;7175244;33;20114;-59
2022/01/27 13:31:13;;;;;;;19.83;11.80;;;6.60;99.90;;;;;;7174478;33;20106;-60
2022/01/27 13:35:17;;;;;;;20.88;11.23;;;6.70;99.90;;;;;;7169303;33;20267;-62
2022/01/27 13:43:41;;;;;;;13.90;9.75;;;6.80;99.90;;;;;;7176184;33;20132;-61
2022/01/27 13:47:42;;;;;;;15.82;10.43;;;6.80;99.90;;;;;;7175979;33;20110;-61
2022/01/27 13:51:54;;;;;;;15.93;9.00;;;6.80;99.90;;;;;;7177232;33;20747;-60
2022/01/27 13:55:58;;;;;;;14.60;9.77;;;6.90;99.90;;;;;;7178973;32;20105;-61
2022/01/27 14:00:08;;;;;;;13.98;9.73;;;6.90;99.90;;;;;;7180645;32;20137;-60
2022/01/27 14:04:11;;;;;;;18.20;10.77;;;6.90;99.90;;;;;;7178704;32;20197;-60
2022/01/27 14:08:13;;;;;;;16.02;11.75;;;6.80;99.90;;;;;;7179544;32;20114;-60
2022/01/27 14:12:19;;;;;;;14.63;10.30;;;6.80;99.90;;;;;;7175142;32;20703;-60
2022/01/27 14:16:26;;;;;;;14.85;10.73;;;6.80;99.90;;;;;;7179908;32;20219;-60
2022/01/27 14:20:28;;;;;;;17.45;12.95;;;6.70;99.90;;;;;;7180893;32;20529;-60
2022/01/27 14:24:36;;;;;;;20.58;15.00;;;6.70;99.90;;;;;;7181004;32;20455;-60
2022/01/27 14:28:38;;;;;;;18.77;14.13;;;6.80;99.90;;;;;;7180136;32;20494;-60
2022/01/27 14:32:42;;;;;;;23.12;13.73;;;6.70;99.90;;;;;;7179597;32;20215;-59
2022/01/27 14:36:43;;;;;;;21.48;14.65;;;6.80;99.90;;;;;;7181004;32;20105;-60
2022/01/27 14:40:47;;;;;;;23.62;14.70;;;6.80;99.90;;;;;;7182249;33;20335;-60
2022/01/27 14:44:50;;;;;;;26.60;16.48;;;6.80;99.90;;;;;;7180927;32;20151;-60
2022/01/27 14:48:56;;;;;;;29.25;16.98;;;6.90;99.90;;;;;;7179294;32;20529;-59
2022/01/27 14:52:58;;;;;;;28.20;18.13;;;6.90;99.90;;;;;;7174873;32;20131;-60
2022/01/27 14:57:00;;;;;;;25.62;17.15;;;6.90;99.90;;;;;;7179257;32;20110;-62
2022/01/27 15:01:02;;;;;;;29.02;19.48;;;7.00;99.90;;;;;;7169993;32;20216;-60
2022/01/27 15:05:06;;;;;;;29.90;18.83;;;7.00;99.90;;;;;;7173985;32;20259;-60
2022/01/27 15:09:07;;;;;;;32.15;19.10;;;7.10;99.90;;;;;;7178490;32;20217;-60
2022/01/27 15:13:11;;;;;;;33.03;18.80;;;7.10;99.90;;;;;;7178174;32;20136;-60
2022/01/27 15:21:34;;;;;;;32.25;19.40;;;7.20;99.90;;;;;;7172339;32;20164;-60
2022/01/27 15:25:39;;;;;;;31.75;19.15;;;7.20;99.90;;;;;;7176875;32;20176;-60
2022/01/27 15:29:41;;;;;;;34.88;20.98;;;7.20;99.90;;;;;;7177210;32;20151;-60
2022/01/27 15:33:43;;;;;;;27.77;18.52;;;7.20;99.90;;;;;;7171888;32;20354;-62
2022/01/27 15:37:45;;;;;;;32.22;19.65;;;7.20;99.90;;;;;;7177703;32;20145;-60
2022/01/27 15:41:48;;;;;;;33.33;18.75;;;7.30;99.90;;;;;;7176055;32;20113;-60
2022/01/27 15:45:50;;;;;;;29.45;18.50;;;7.30;99.90;;;;;;7176874;32;20120;-61
2022/01/27 15:49:53;;;;;;;28.50;20.08;;;7.40;99.90;;;;;;7173900;32;20163;-59
2022/01/27 15:54:01;;;;;;;27.02;18.55;;;7.40;99.90;;;;;;7171096;32;20204;-62
2022/01/27 15:58:03;;;;;;;27.40;17.83;;;7.30;99.90;;;;;;7178658;32;20145;-60
2022/01/27 16:02:05;;;;;;;31.10;17.87;;;7.30;99.90;;;;;;7178344;32;20204;-60
2022/01/27 16:06:07;;;;;;;25.00;16.00;;;7.40;99.90;;;;;;7176738;32;20113;-60
2022/01/27 16:10:22;;;;;;;29.95;19.55;;;7.30;99.90;;;;;;7176337;32;20118;-59
2022/01/27 16:14:24;;;;;;;31.48;17.45;;;7.30;99.90;;;;;;7178515;33;20120;-60
2022/01/27 16:18:26;;;;;;;26.92;16.70;;;7.30;99.90;;;;;;7176809;32;20109;-60
2022/01/27 16:22:30;;;;;;;23.60;16.20;;;7.30;99.90;;;;;;7177226;32;20109;-60
2022/01/27 16:26:31;;;;;;;26.30;17.35;;;7.30;99.90;;;;;;7176036;32;20564;-59
2022/01/27 16:30:33;;;;;;;24.08;15.38;;;7.30;99.90;;;;;;7173417;32;20113;-61
2022/01/27 16:34:35;;;;;;;26.67;16.95;;;7.40;99.90;;;;;;7176359;32;21030;-61
2022/01/27 16:38:37;;;;;;;26.77;17.10;;;7.20;99.90;;;;;;7177893;32;20168;-62
2022/01/27 16:42:39;;;;;;;27.87;15.85;;;7.40;99.90;;;;;;7176428;32;20129;-60
2022/01/27 16:46:40;;;;;;;22.60;15.38;;;7.30;99.90;;;;;;7172881;32;20612;-61
2022/01/27 16:50:43;;;;;;;27.55;16.25;;;7.30;99.90;;;;;;7172193;32;20478;-59
2022/01/27 16:54:45;;;;;;;22.90;14.60;;;7.30;99.90;;;;;;7174760;32;20449;-58
2022/01/27 16:58:48;;;;;;;26.15;15.73;;;7.20;99.90;;;;;;7172921;32;20151;-58
2022/01/27 17:02:49;;;;;;;24.35;14.68;;;7.20;99.90;;;;;;7173422;32;20533;-58
2022/01/27 17:06:52;;;;;;;20.42;13.60;;;7.20;99.90;;;;;;7173838;33;20533;-58
2022/01/27 17:10:54;;;;;;;22.35;11.35;;;7.20;99.90;;;;;;7166786;33;20140;-61
2022/01/27 17:14:55;;;;;;;21.52;11.73;;;7.20;99.90;;;;;;7176703;33;20576;-59
2022/01/27 17:18:57;;;;;;;21.40;12.52;;;7.20;99.90;;;;;;7177480;33;20129;-59
2022/01/27 17:22:59;;;;;;;26.17;11.98;;;7.10;99.90;;;;;;7175085;33;20132;-60
2022/01/27 17:27:01;;;;;;;15.52;9.60;;;7.10;99.90;;;;;;7176089;33;20395;-59
2022/01/27 17:31:03;;;;;;;13.48;7.45;;;7.00;99.90;;;;;;7176028;32;20196;-59
2022/01/27 17:35:07;;;;;;;13.95;6.43;;;7.00;99.90;;;;;;7177064;32;20683;-59
2022/01/27 17:39:10;;;;;;;11.60;4.82;;;6.80;99.90;;;;;;7172650;32;20167;-60
2022/01/27 17:43:19;;;;;;;11.00;4.60;;;6.70;99.90;;;;;;7180493;32;20121;-59
2022/01/27 17:47:21;;;;;;;12.85;3.85;;;6.60;99.90;;;;;;7171181;33;20114;-59
2022/01/27 17:51:24;;;;;;;7.95;2.33;;;6.50;99.90;;;;;;7181736;33;20776;-59
2022/01/27 17:55:26;;;;;;;4.07;1.75;;;6.50;99.90;;;;;;7181215;33;20196;-60
2022/01/27 17:59:28;;;;;;;5.03;1.90;;;6.50;99.90;;;;;;7186181;33;20136;-58
2022/01/27 18:03:30;;;;;;;5.75;1.60;;;6.40;99.90;;;;;;7180308;33;20311;-59
2022/01/27 18:07:32;;;;;;;8.20;1.40;;;6.40;99.90;;;;;;7170204;33;20447;-59
2022/01/27 18:11:35;;;;;;;6.85;1.02;;;6.30;99.90;;;;;;7185227;33;20109;-59
2022/01/27 18:15:37;;;;;;;7.93;2.10;;;6.30;99.90;;;;;;7184555;33;20109;-60
2022/01/27 18:19:38;;;;;;;10.45;1.73;;;6.20;99.90;;;;;;7181195;33;20132;-59
2022/01/27 18:23:40;;;;;;;7.68;1.62;;;6.20;99.90;;;;;;7179158;32;20573;-59
2022/01/27 18:27:42;;;;;;;9.60;2.12;;;6.10;99.90;;;;;;7175979;32;20519;-58
2022/01/27 18:31:44;;;;;;;5.93;1.58;;;6.20;99.90;;;;;;7175567;32;20533;-59
2022/01/27 18:35:46;;;;;;;5.15;1.67;;;6.20;99.90;;;;;;7175132;32;20185;-59
2022/01/27 18:39:48;;;;;;;7.35;1.83;;;6.20;99.90;;;;;;7177754;32;20208;-59
2022/01/27 18:43:50;;;;;;;8.90;1.73;;;6.20;99.90;;;;;;7178833;32;20169;-59
2022/01/27 18:47:52;;;;;;;9.10;2.00;;;6.20;99.90;;;;;;7176534;32;20211;-60
2022/01/27 18:51:54;;;;;;;8.73;2.30;;;6.10;99.90;;;;;;7177275;32;20228;-59
2022/01/27 18:55:56;;;;;;;5.95;2.10;;;6.10;99.90;;;;;;7179994;32;20249;-59
2022/01/27 18:59:57;;;;;;;13.15;2.10;;;6.10;99.90;;;;;;7182297;32;20106;-59
2022/01/27 19:03:59;;;;;;;11.75;3.25;;;6.30;99.90;;;;;;7179121;32;20131;-60
2022/01/27 19:08:01;;;;;;;9.43;2.10;;;6.20;99.90;;;;;;7176631;32;20697;-60
2022/01/27 19:12:04;;;;;;;8.50;1.90;;;6.20;99.90;;;;;;7166443;32;20181;-60
2022/01/27 19:16:06;;;;;;;12.80;2.42;;;6.20;99.90;;;;;;7170260;32;20210;-60
2022/01/27 19:20:09;;;;;;;9.50;2.17;;;6.30;99.90;;;;;;7177459;32;20581;-59
2022/01/27 19:24:12;;;;;;;9.35;2.42;;;6.30;99.90;;;;;;7178205;32;20106;-60
2022/01/27 19:28:22;;;;;;;13.02;3.75;;;6.40;99.90;;;;;;7178176;32;20109;-59
2022/01/27 19:32:25;;;;;;;15.07;3.45;;;6.60;99.90;;;;;;7174312;32;20135;-60
2022/01/27 19:36:26;;;;;;;17.40;3.00;;;6.60;99.90;;;;;;7171756;32;20260;-61
2022/01/27 19:40:28;;;;;;;11.15;2.72;;;6.60;99.90;;;;;;7177983;32;20494;-60
2022/01/27 19:44:32;;;;;;;12.27;3.30;;;6.70;99.90;;;;;;7173092;32;20136;-60
2022/01/27 19:48:36;;;;;;;12.90;2.85;;;6.60;99.90;;;;;;7179882;32;20821;-60
2022/01/27 19:52:38;;;;;;;13.82;2.95;;;6.70;99.90;;;;;;7179697;32;20114;-62
2022/01/27 19:56:40;;;;;;;14.77;3.70;;;6.70;99.90;;;;;;7175840;33;20098;-61
2022/01/27 20:00:42;;;;;;;10.63;2.10;;;6.70;99.90;;;;;;7178774;32;20543;-60
2022/01/27 20:04:44;;;;;;;17.65;2.17;;;6.60;99.90;;;;;;7177136;32;20137;-60
2022/01/27 20:08:46;;;;;;;14.82;2.53;;;6.60;99.90;;;;;;7174238;32;20133;-60
2022/01/27 20:12:47;;;;;;;11.82;2.20;;;6.40;99.90;;;;;;7176787;32;20117;-61
2022/01/27 20:16:50;;;;;;;12.65;1.90;;;6.30;99.90;;;;;;7165342;32;20110;-59
2022/01/27 20:20:53;;;;;;;15.35;2.45;;;6.30;99.90;;;;;;7177190;32;20117;-59
2022/01/27 20:24:54;;;;;;;6.28;1.98;;;6.20;99.90;;;;;;7175730;32;20184;-60
2022/01/27 20:28:56;;;;;;;10.00;1.92;;;6.10;99.90;;;;;;7178988;32;20259;-59
2022/01/27 20:32:58;;;;;;;6.68;1.42;;;6.10;99.90;;;;;;7177346;32;20131;-59
2022/01/27 20:36:59;;;;;;;7.53;1.92;;;6.10;99.90;;;;;;7176988;32;20255;-59
2022/01/27 20:41:01;;;;;;;15.68;2.03;;;6.10;99.90;;;;;;7171218;32;20113;-59
2022/01/27 20:45:05;;;;;;;10.23;1.95;;;6.10;99.90;;;;;;7171763;32;20106;-60
2022/01/27 20:49:06;;;;;;;14.75;1.90;;;6.10;99.90;;;;;;7174715;32;20205;-59
2022/01/27 20:53:10;;;;;;;12.70;1.87;;;6.00;99.90;;;;;;7171787;32;20132;-60
2022/01/27 20:57:12;;;;;;;10.23;2.33;;;6.00;99.90;;;;;;7176839;32;20109;-60
2022/01/27 21:01:14;;;;;;;13.23;2.33;;;6.10;99.90;;;;;;7176089;33;20212;-60
2022/01/27 21:05:16;;;;;;;19.58;2.67;;;6.00;99.90;;;;;;7174653;32;20130;-60
2022/01/27 21:09:20;;;;;;;9.57;1.87;;;6.10;99.90;;;;;;7177946;32;21876;-59
2022/01/27 21:13:25;;;;;;;9.20;1.77;;;6.10;99.90;;;;;;7173754;33;20184;-59
2022/01/27 21:17:28;;;;;;;13.45;1.87;;;6.10;99.90;;;;;;7175240;33;20538;-60
2022/01/27 21:21:30;;;;;;;14.20;2.30;;;6.00;99.90;;;;;;7175415;33;20144;-59
2022/01/27 21:25:32;;;;;;;13.98;2.42;;;6.00;99.90;;;;;;7174976;33;20192;-60
2022/01/27 21:29:34;;;;;;;16.45;3.15;;;6.00;99.90;;;;;;7178643;33;20542;-60
2022/01/27 21:33:36;;;;;;;11.35;2.17;;;5.90;99.90;;;;;;7176239;33;20109;-60
2022/01/27 21:37:43;;;;;;;15.95;2.28;;;5.90;99.90;;;;;;7178374;33;20117;-59
2022/01/27 21:41:44;;;;;;;11.82;2.00;;;5.90;99.90;;;;;;7173299;33;20128;-60
2022/01/27 21:45:46;;;;;;;15.32;2.20;;;5.80;99.90;;;;;;7171018;33;20337;-60